sensor_id;sensor_type;location;lat;lon;timestamp;pressure;altitude;pressure_sealevel;temperature;humidity
54546;BME280;40444;45.184;9.850;2023-04-01T00:01:17;99789.13;;;9.76;100.00
54546;BME280;40444;45.184;9.850;2023-04-01T00:03:46;99798.22;;;9.83;100.00
54546;BME280;40444;45.184;9.850;2023-04-01T00:06:16;99780.94;;;9.78;100.00
54546;BME280;40444;45.184;9.850;2023-04-01T00:08:45;99773.31;;;9.83;100.00
54546;BME280;40444;45.184;9.850;2023-04-01T00:11:15;99769.25;;;9.79;100.00
54546;BME280;40444;45.184;9.850;2023-04-01T00:13:47;99778.94;;;9.80;100.00
54546;BME280;40444;45.184;9.850;2023-04-01T00:16:16;99786.69;;;9.83;100.00
54546;BME280;40444;45.184;9.850;2023-04-01T00:18:50;99784.00;;;9.83;100.00
54546;BME280;40444;45.184;9.850;2023-04-01T00:21:19;99778.72;;;9.73;100.00
54546;BME280;40444;45.184;9.850;2023-04-01T00:23:51;99771.38;;;9.75;100.00
54546;BME280;40444;45.184;9.850;2023-04-01T00:26:21;99773.06;;;9.76;100.00
54546;BME280;40444;45.184;9.850;2023-04-01T00:28:50;99772.50;;;9.73;100.00
54546;BME280;40444;45.184;9.850;2023-04-01T00:31:19;99774.28;;;9.82;100.00
54546;BME280;40444;45.184;9.850;2023-04-01T00:33:48;99778.13;;;9.79;100.00
54546;BME280;40444;45.184;9.850;2023-04-01T00:36:20;99782.31;;;9.82;100.00
54546;BME280;40444;45.184;9.850;2023-04-01T00:38:49;99781.16;;;9.84;100.00
54546;BME280;40444;45.184;9.850;2023-04-01T00:41:19;99774.28;;;10.00;100.00
54546;BME280;40444;45.184;9.850;2023-04-01T00:43:50;99781.34;;;10.01;100.00
54546;BME280;40444;45.184;9.850;2023-04-01T00:46:19;99777.41;;;9.95;100.00
54546;BME280;40444;45.184;9.850;2023-04-01T00:48:54;99781.16;;;10.02;100.00
54546;BME280;40444;45.184;9.850;2023-04-01T00:51:26;99776.09;;;9.99;100.00
54546;BME280;40444;45.184;9.850;2023-04-01T00:53:58;99778.50;;;10.02;100.00
54546;BME280;40444;45.184;9.850;2023-04-01T00:56:35;99777.72;;;10.10;100.00
54546;BME280;40444;45.184;9.850;2023-04-01T00:59:08;99770.38;;;10.12;100.00
54546;BME280;40444;45.184;9.850;2023-04-01T01:01:39;99775.19;;;10.08;100.00
54546;BME280;40444;45.184;9.850;2023-04-01T01:04:24;99779.94;;;9.97;100.00
54546;BME280;40444;45.184;9.850;2023-04-01T01:07:03;99780.78;;;9.97;100.00
54546;BME280;40444;45.184;9.850;2023-04-01T01:12:25;99776.13;;;9.81;100.00
54546;BME280;40444;45.184;9.850;2023-04-01T01:17:48;99781.00;;;9.68;100.00
54546;BME280;40444;45.184;9.850;2023-04-01T01:20:35;99776.19;;;9.72;100.00
54546;BME280;40444;45.184;9.850;2023-04-01T01:32:04;99774.22;;;9.56;100.00
54546;BME280;40444;45.184;9.850;2023-04-01T01:37:11;99764.88;;;9.42;100.00
54546;BME280;40444;45.184;9.850;2023-04-01T01:39:46;99766.09;;;9.48;100.00
54546;BME280;40444;45.184;9.850;2023-04-01T01:42:18;99771.78;;;9.35;100.00
54546;BME280;40444;45.184;9.850;2023-04-01T01:44:50;99763.38;;;9.30;100.00
54546;BME280;40444;45.184;9.850;2023-04-01T01:47:22;99756.59;;;9.35;100.00
54546;BME280;40444;45.184;9.850;2023-04-01T01:49:52;99759.50;;;9.24;100.00
54546;BME280;40444;45.184;9.850;2023-04-01T01:52:23;99755.50;;;9.28;100.00
54546;BME280;40444;45.184;9.850;2023-04-01T01:54:54;99758.63;;;9.24;100.00
54546;BME280;40444;45.184;9.850;2023-04-01T01:57:30;99751.16;;;9.27;100.00
54546;BME280;40444;45.184;9.850;2023-04-01T02:00:06;99749.69;;;9.33;100.00
54546;BME280;40444;45.184;9.850;2023-04-01T02:02:45;99753.28;;;9.24;100.00
54546;BME280;40444;45.184;9.850;2023-04-01T02:05:19;99748.00;;;9.14;100.00
54546;BME280;40444;45.184;9.850;2023-04-01T02:08:08;99758.78;;;9.22;100.00
54546;BME280;40444;45.184;9.850;2023-04-01T02:10:42;99758.50;;;9.25;100.00
54546;BME280;40444;45.184;9.850;2023-04-01T02:13:38;99759.69;;;9.13;100.00
54546;BME280;40444;45.184;9.850;2023-04-01T02:16:14;99764.19;;;9.13;100.00
54546;BME280;40444;45.184;9.850;2023-04-01T02:18:46;99761.25;;;9.06;100.00
54546;BME280;40444;45.184;9.850;2023-04-01T02:21:19;99754.66;;;9.00;100.00
54546;BME280;40444;45.184;9.850;2023-04-01T02:23:49;99758.13;;;9.10;100.00
54546;BME280;40444;45.184;9.850;2023-04-01T02:26:20;99763.09;;;9.05;100.00
54546;BME280;40444;45.184;9.850;2023-04-01T02:28:50;99764.34;;;9.11;100.00
54546;BME280;40444;45.184;9.850;2023-04-01T02:31:21;99767.53;;;9.15;100.00
54546;BME280;40444;45.184;9.850;2023-04-01T02:33:52;99768.53;;;9.14;100.00
54546;BME280;40444;45.184;9.850;2023-04-01T02:36:21;99769.81;;;9.09;100.00
54546;BME280;40444;45.184;9.850;2023-04-01T02:38:51;99771.75;;;9.17;100.00
54546;BME280;40444;45.184;9.850;2023-04-01T02:41:20;99769.75;;;9.19;100.00
54546;BME280;40444;45.184;9.850;2023-04-01T02:43:48;99775.81;;;9.21;100.00
54546;BME280;40444;45.184;9.850;2023-04-01T02:46:17;99781.16;;;9.21;100.00
54546;BME280;40444;45.184;9.850;2023-04-01T02:48:45;99783.28;;;9.18;100.00
54546;BME280;40444;45.184;9.850;2023-04-01T02:51:13;99782.00;;;9.22;100.00
54546;BME280;40444;45.184;9.850;2023-04-01T02:53:44;99781.00;;;9.23;100.00
54546;BME280;40444;45.184;9.850;2023-04-01T02:56:13;99781.72;;;9.25;100.00
54546;BME280;40444;45.184;9.850;2023-04-01T02:58:41;99792.53;;;9.23;100.00
54546;BME280;40444;45.184;9.850;2023-04-01T03:01:10;99794.69;;;9.20;100.00
54546;BME280;40444;45.184;9.850;2023-04-01T03:03:39;99798.75;;;9.42;100.00
54546;BME280;40444;45.184;9.850;2023-04-01T03:06:10;99808.50;;;9.33;100.00
54546;BME280;40444;45.184;9.850;2023-04-01T03:08:39;99796.38;;;9.21;100.00
54546;BME280;40444;45.184;9.850;2023-04-01T03:11:09;99801.81;;;9.29;100.00
54546;BME280;40444;45.184;9.850;2023-04-01T03:13:38;99807.00;;;9.30;100.00
54546;BME280;40444;45.184;9.850;2023-04-01T03:16:07;99808.00;;;9.29;100.00
54546;BME280;40444;45.184;9.850;2023-04-01T03:18:35;99810.97;;;9.26;100.00
54546;BME280;40444;45.184;9.850;2023-04-01T03:21:14;99807.06;;;9.21;100.00
54546;BME280;40444;45.184;9.850;2023-04-01T03:23:43;99812.28;;;9.13;100.00
54546;BME280;40444;45.184;9.850;2023-04-01T03:26:12;99814.06;;;8.94;100.00
54546;BME280;40444;45.184;9.850;2023-04-01T03:28:42;99807.44;;;8.98;100.00
54546;BME280;40444;45.184;9.850;2023-04-01T03:31:11;99802.38;;;8.95;100.00
54546;BME280;40444;45.184;9.850;2023-04-01T03:33:47;99809.84;;;8.92;100.00
54546;BME280;40444;45.184;9.850;2023-04-01T03:36:15;99810.25;;;8.87;100.00
54546;BME280;40444;45.184;9.850;2023-04-01T03:38:44;99801.56;;;8.85;100.00
54546;BME280;40444;45.184;9.850;2023-04-01T03:41:18;99813.66;;;8.89;100.00
54546;BME280;40444;45.184;9.850;2023-04-01T03:43:46;99811.56;;;8.73;100.00
54546;BME280;40444;45.184;9.850;2023-04-01T03:46:19;99811.28;;;8.76;100.00
54546;BME280;40444;45.184;9.850;2023-04-01T03:48:48;99816.19;;;8.81;100.00
54546;BME280;40444;45.184;9.850;2023-04-01T03:51:17;99816.03;;;8.82;100.00
54546;BME280;40444;45.184;9.850;2023-04-01T03:53:48;99808.88;;;8.83;100.00
54546;BME280;40444;45.184;9.850;2023-04-01T03:56:17;99811.97;;;8.78;100.00
54546;BME280;40444;45.184;9.850;2023-04-01T03:58:45;99811.16;;;8.68;100.00
54546;BME280;40444;45.184;9.850;2023-04-01T04:01:17;99807.97;;;8.55;100.00
54546;BME280;40444;45.184;9.850;2023-04-01T04:03:48;99799.97;;;8.55;100.00
54546;BME280;40444;45.184;9.850;2023-04-01T04:06:19;99810.78;;;8.44;100.00
54546;BME280;40444;45.184;9.850;2023-04-01T04:08:48;99810.94;;;8.42;100.00
54546;BME280;40444;45.184;9.850;2023-04-01T04:11:18;99825.28;;;8.41;100.00
54546;BME280;40444;45.184;9.850;2023-04-01T04:13:48;99815.28;;;8.33;100.00
54546;BME280;40444;45.184;9.850;2023-04-01T04:16:17;99820.75;;;8.32;100.00
54546;BME280;40444;45.184;9.850;2023-04-01T04:18:51;99819.09;;;8.31;100.00
54546;BME280;40444;45.184;9.850;2023-04-01T04:21:20;99816.84;;;8.26;100.00
54546;BME280;40444;45.184;9.850;2023-04-01T04:23:48;99815.13;;;8.25;100.00
54546;BME280;40444;45.184;9.850;2023-04-01T04:26:18;99815.00;;;8.27;100.00
54546;BME280;40444;45.184;9.850;2023-04-01T04:28:56;99822.19;;;8.26;100.00
54546;BME280;40444;45.184;9.850;2023-04-01T04:31:26;99829.47;;;8.24;100.00
54546;BME280;40444;45.184;9.850;2023-04-01T04:33:59;99842.53;;;8.27;100.00
54546;BME280;40444;45.184;9.850;2023-04-01T04:36:32;99839.88;;;8.27;100.00
54546;BME280;40444;45.184;9.850;2023-04-01T04:39:01;99845.06;;;8.19;100.00
54546;BME280;40444;45.184;9.850;2023-04-01T04:41:31;99854.59;;;8.12;100.00
54546;BME280;40444;45.184;9.850;2023-04-01T04:44:04;99854.19;;;8.07;100.00
54546;BME280;40444;45.184;9.850;2023-04-01T04:46:34;99850.41;;;8.00;100.00
54546;BME280;40444;45.184;9.850;2023-04-01T04:49:11;99857.00;;;7.96;100.00
54546;BME280;40444;45.184;9.850;2023-04-01T04:51:40;99863.44;;;7.93;100.00
54546;BME280;40444;45.184;9.850;2023-04-01T04:54:09;99869.75;;;7.92;100.00
54546;BME280;40444;45.184;9.850;2023-04-01T04:56:52;99866.09;;;7.93;100.00
54546;BME280;40444;45.184;9.850;2023-04-01T04:59:22;99871.31;;;7.95;100.00
54546;BME280;40444;45.184;9.850;2023-04-01T05:02:09;99862.34;;;7.96;100.00
54546;BME280;40444;45.184;9.850;2023-04-01T05:04:37;99852.78;;;7.93;100.00
54546;BME280;40444;45.184;9.850;2023-04-01T05:07:09;99862.88;;;7.90;100.00
54546;BME280;40444;45.184;9.850;2023-04-01T05:09:38;99866.38;;;7.90;100.00
54546;BME280;40444;45.184;9.850;2023-04-01T05:12:07;99877.03;;;7.90;100.00
54546;BME280;40444;45.184;9.850;2023-04-01T05:15:08;99865.84;;;7.87;100.00
54546;BME280;40444;45.184;9.850;2023-04-01T05:17:38;99879.84;;;7.89;100.00
54546;BME280;40444;45.184;9.850;2023-04-01T05:20:07;99886.19;;;7.88;100.00
54546;BME280;40444;45.184;9.850;2023-04-01T05:22:36;99885.34;;;7.87;100.00
54546;BME280;40444;45.184;9.850;2023-04-01T05:25:05;99883.38;;;7.89;100.00
54546;BME280;40444;45.184;9.850;2023-04-01T05:27:34;99888.84;;;7.88;100.00
54546;BME280;40444;45.184;9.850;2023-04-01T05:30:03;99883.50;;;7.88;100.00
54546;BME280;40444;45.184;9.850;2023-04-01T05:32:41;99885.31;;;7.77;100.00
54546;BME280;40444;45.184;9.850;2023-04-01T05:35:11;99888.13;;;7.76;100.00
54546;BME280;40444;45.184;9.850;2023-04-01T05:37:40;99875.91;;;7.73;100.00
54546;BME280;40444;45.184;9.850;2023-04-01T05:40:09;99882.78;;;7.76;100.00
54546;BME280;40444;45.184;9.850;2023-04-01T05:42:37;99879.84;;;7.79;100.00
54546;BME280;40444;45.184;9.850;2023-04-01T05:45:06;99890.78;;;7.85;100.00
54546;BME280;40444;45.184;9.850;2023-04-01T05:48:01;99897.97;;;7.85;100.00
54546;BME280;40444;45.184;9.850;2023-04-01T05:50:35;99892.22;;;7.90;100.00
54546;BME280;40444;45.184;9.850;2023-04-01T05:53:05;99899.25;;;7.91;100.00
54546;BME280;40444;45.184;9.850;2023-04-01T05:55:35;99901.63;;;7.94;100.00
54546;BME280;40444;45.184;9.850;2023-04-01T05:58:05;99902.06;;;7.99;100.00
54546;BME280;40444;45.184;9.850;2023-04-01T06:00:35;99902.22;;;8.07;100.00
54546;BME280;40444;45.184;9.850;2023-04-01T06:03:04;99897.44;;;8.10;100.00
54546;BME280;40444;45.184;9.850;2023-04-01T06:05:41;99904.03;;;8.16;100.00
54546;BME280;40444;45.184;9.850;2023-04-01T06:08:14;99905.88;;;8.25;100.00
54546;BME280;40444;45.184;9.850;2023-04-01T06:16:21;99909.56;;;8.63;100.00
54546;BME280;40444;45.184;9.850;2023-04-01T06:25:07;99917.69;;;8.91;100.00
54546;BME280;40444;45.184;9.850;2023-04-01T06:30:40;99915.50;;;9.23;100.00
54546;BME280;40444;45.184;9.850;2023-04-01T06:33:46;99914.59;;;9.42;100.00
54546;BME280;40444;45.184;9.850;2023-04-01T06:36:30;99912.97;;;9.59;100.00
54546;BME280;40444;45.184;9.850;2023-04-01T19:05:31;99685.63;;;15.34;42.73
54546;BME280;40444;45.184;9.850;2023-04-01T19:13:57;99691.28;;;15.39;44.04
54546;BME280;40444;45.184;9.850;2023-04-01T19:22:08;99698.03;;;15.29;43.86
54546;BME280;40444;45.184;9.850;2023-04-01T19:27:52;99685.63;;;15.34;43.19
54546;BME280;40444;45.184;9.850;2023-04-01T19:30:49;99689.72;;;15.30;43.28
54546;BME280;40444;45.184;9.850;2023-04-01T19:33:28;99693.19;;;15.24;42.93
54546;BME280;40444;45.184;9.850;2023-04-01T19:36:16;99701.19;;;15.17;43.65
54546;BME280;40444;45.184;9.850;2023-04-01T19:38:53;99701.97;;;15.11;43.97
54546;BME280;40444;45.184;9.850;2023-04-01T19:41:39;99700.13;;;14.97;44.79
54546;BME280;40444;45.184;9.850;2023-04-01T19:44:51;99712.94;;;14.95;44.80
54546;BME280;40444;45.184;9.850;2023-04-01T19:48:12;99704.41;;;14.91;43.81
54546;BME280;40444;45.184;9.850;2023-04-01T19:50:47;99715.66;;;14.80;43.37
54546;BME280;40444;45.184;9.850;2023-04-01T19:56:41;99718.44;;;14.72;43.02
54546;BME280;40444;45.184;9.850;2023-04-01T19:59:24;99713.53;;;14.76;42.76
54546;BME280;40444;45.184;9.850;2023-04-01T20:10:10;99724.94;;;14.48;44.83
54546;BME280;40444;45.184;9.850;2023-04-01T20:12:54;99723.50;;;14.37;44.98
54546;BME280;40444;45.184;9.850;2023-04-01T20:18:04;99724.84;;;14.19;45.81
54546;BME280;40444;45.184;9.850;2023-04-01T20:20:35;99726.97;;;14.08;46.15
54546;BME280;40444;45.184;9.850;2023-04-01T20:23:21;99728.34;;;14.04;46.86
54546;BME280;40444;45.184;9.850;2023-04-01T20:26:13;99726.75;;;13.95;48.65
54546;BME280;40444;45.184;9.850;2023-04-01T20:29:59;99730.06;;;13.97;48.85
54546;BME280;40444;45.184;9.850;2023-04-01T20:32:19;99729.09;;;13.98;49.04
54546;BME280;40444;45.184;9.850;2023-04-01T20:40:49;99733.50;;;13.91;48.78
54546;BME280;40444;45.184;9.850;2023-04-01T20:43:47;99736.69;;;13.95;48.06
54546;BME280;40444;45.184;9.850;2023-04-01T20:46:34;99730.81;;;13.91;49.62
54546;BME280;40444;45.184;9.850;2023-04-01T20:54:58;99737.75;;;13.62;51.74
54546;BME280;40444;45.184;9.850;2023-04-01T21:00:34;99743.19;;;13.54;52.12
54546;BME280;40444;45.184;9.850;2023-04-01T21:14:41;99756.34;;;13.49;52.77
54546;BME280;40444;45.184;9.850;2023-04-01T21:25:26;99758.72;;;13.44;52.67
54546;BME280;40444;45.184;9.850;2023-04-01T21:28:40;99761.56;;;13.43;53.93
54546;BME280;40444;45.184;9.850;2023-04-01T21:34:28;99773.06;;;13.36;54.49
54546;BME280;40444;45.184;9.850;2023-04-01T21:40:09;99779.00;;;13.24;56.74
54546;BME280;40444;45.184;9.850;2023-04-01T21:57:11;99796.97;;;13.15;55.90
54546;BME280;40444;45.184;9.850;2023-04-01T22:22:26;99791.91;;;12.73;56.02
54546;BME280;40444;45.184;9.850;2023-04-01T22:27:49;99798.78;;;12.59;59.17
54546;BME280;40444;45.184;9.850;2023-04-01T22:30:30;99804.34;;;12.41;60.67
54546;BME280;40444;45.184;9.850;2023-04-01T22:47:56;99806.00;;;11.43;66.57
54546;BME280;40444;45.184;9.850;2023-04-01T22:53:39;99801.00;;;11.48;65.01
54546;BME280;40444;45.184;9.850;2023-04-01T22:56:16;99805.19;;;11.50;64.09
54546;BME280;40444;45.184;9.850;2023-04-01T22:58:54;99798.69;;;11.53;64.45
54546;BME280;40444;45.184;9.850;2023-04-01T23:01:29;99806.00;;;11.43;64.23
54546;BME280;40444;45.184;9.850;2023-04-01T23:04:03;99796.63;;;11.38;63.16
54546;BME280;40444;45.184;9.850;2023-04-01T23:06:40;99801.28;;;11.36;62.93
54546;BME280;40444;45.184;9.850;2023-04-01T23:09:15;99809.34;;;11.36;63.65
54546;BME280;40444;45.184;9.850;2023-04-01T23:11:53;99809.34;;;11.36;63.94
54546;BME280;40444;45.184;9.850;2023-04-01T23:17:18;99813.84;;;11.28;66.84
54546;BME280;40444;45.184;9.850;2023-04-01T23:20:27;99807.59;;;11.19;67.84
54546;BME280;40444;45.184;9.850;2023-04-01T23:28:51;99812.06;;;11.10;66.64
54546;BME280;40444;45.184;9.850;2023-04-01T23:31:42;99817.78;;;11.07;67.65
54546;BME280;40444;45.184;9.850;2023-04-01T23:36:51;99816.53;;;11.02;66.29
54546;BME280;40444;45.184;9.850;2023-04-01T23:42:18;99816.19;;;10.97;65.86
54546;BME280;40444;45.184;9.850;2023-04-01T23:44:51;99818.81;;;10.88;66.22
54546;BME280;40444;45.184;9.850;2023-04-01T23:47:23;99819.63;;;10.81;66.55
54546;BME280;40444;45.184;9.850;2023-04-01T23:49:59;99817.91;;;10.72;67.28
54546;BME280;40444;45.184;9.850;2023-04-01T23:52:35;99824.69;;;10.66;67.90
54546;BME280;40444;45.184;9.850;2023-04-01T23:57:39;99833.16;;;10.53;67.99
